Aviation Digital Data Service (ADDS)

Output produced by METARs form (1720 UTC 21 September 2019)
found at http://aviationweather.gov/metar/data/
 
KSGR 211720Z 2118/2218 13009KT P6SM SCT035 BKN110 
     FM220900 13005KT P6SM SCT030 
     FM221500 14007KT P6SM SCT035